Time;durP1;ratioP1;P1;durP2;ratioP2;P2;SDS_P1;SDS_P2;PMS_P1;PMS_P2;Temp;Humidity;BMP_temperature;BMP_pressure;BME280_temperature;BME280_humidity;BME280_pressure;Samples;Min_cycle;Max_cycle;Signal;HPM_P1;HPM_P2
2023/01/12 00:02:02;;;;;;;1.33;0.85;;;9.50;93.70;;;;;;5032015;28;20472;-66
2023/01/12 00:04:29;;;;;;;1.73;1.08;;;9.50;93.70;;;;;;5029167;28;20027;-66
2023/01/12 00:06:56;;;;;;;3.22;1.10;;;9.50;93.80;;;;;;5023728;28;20033;-68
2023/01/12 00:09:22;;;;;;;2.90;1.10;;;9.50;93.80;;;;;;5028075;28;20132;-67
2023/01/12 00:11:47;;;;;;;3.30;1.10;;;9.50;93.80;;;;;;5026091;28;20528;-68
2023/01/12 00:14:13;;;;;;;1.77;1.15;;;9.50;93.90;;;;;;5032441;28;20109;-67
2023/01/12 00:16:42;;;;;;;1.42;0.80;;;9.50;93.90;;;;;;5019213;28;20025;-67
2023/01/12 00:19:19;;;;;;;1.95;1.10;;;9.50;93.90;;;;;;5030067;28;20105;-67
2023/01/12 00:22:01;;;;;;;1.30;1.20;;;9.50;94.00;;;;;;5043909;28;20013;-67
2023/01/12 00:24:36;;;;;;;3.40;1.20;;;9.50;94.00;;;;;;5023128;28;20489;-66
2023/01/12 00:27:04;;;;;;;4.00;1.40;;;9.50;94.00;;;;;;5017010;28;20077;-67
2023/01/12 00:29:30;;;;;;;2.38;1.10;;;9.50;94.30;;;;;;5021935;28;20037;-67
2023/01/12 00:31:57;;;;;;;4.65;1.52;;;9.50;94.00;;;;;;5020467;28;20024;-68
2023/01/12 00:34:23;;;;;;;4.57;1.40;;;9.50;94.00;;;;;;5020005;28;20030;-66
2023/01/12 00:36:49;;;;;;;5.78;1.45;;;9.50;94.10;;;;;;5010573;28;20080;-68
2023/01/12 00:39:15;;;;;;;2.55;1.48;;;9.60;94.10;;;;;;5011193;28;20447;-66
2023/01/12 00:47:12;;;;;;;6.32;1.38;;;9.60;94.20;;;;;;5026699;28;20408;-66
2023/01/12 00:49:38;;;;;;;6.70;1.63;;;9.60;94.20;;;;;;5026327;28;20496;-66
2023/01/12 00:52:05;;;;;;;4.95;1.48;;;9.60;94.20;;;;;;5026422;28;20140;-68
2023/01/12 00:54:33;;;;;;;5.65;1.92;;;9.60;94.20;;;;;;5023077;28;20024;-67
2023/01/12 00:56:59;;;;;;;3.78;1.70;;;9.60;94.20;;;;;;5016873;28;20112;-67
2023/01/12 00:59:24;;;;;;;5.20;1.85;;;9.60;94.30;;;;;;5029963;28;20692;-68
2023/01/12 01:01:50;;;;;;;3.47;1.65;;;9.60;94.30;;;;;;5029237;28;20033;-67
2023/01/12 01:04:16;;;;;;;2.60;1.40;;;9.60;94.40;;;;;;5044179;28;20028;-67
2023/01/12 01:06:41;;;;;;;8.77;2.08;;;9.60;94.70;;;;;;5019594;28;20018;-67
2023/01/12 01:09:07;;;;;;;3.80;1.50;;;9.60;94.40;;;;;;5026374;28;20724;-68
2023/01/12 01:11:34;;;;;;;4.65;1.73;;;9.60;94.50;;;;;;5019641;28;20575;-68
2023/01/12 01:14:00;;;;;;;3.60;1.23;;;9.60;94.50;;;;;;5018703;28;20488;-67
2023/01/12 01:16:26;;;;;;;3.05;1.58;;;9.70;94.50;;;;;;5026079;28;20045;-66
2023/01/12 01:18:52;;;;;;;5.18;1.80;;;9.70;94.60;;;;;;5013860;28;20512;-68
2023/01/12 01:21:18;;;;;;;4.10;1.52;;;9.70;94.60;;;;;;5025096;28;20026;-67
2023/01/12 01:23:44;;;;;;;5.45;2.00;;;9.70;94.60;;;;;;5026749;28;20500;-67
2023/01/12 01:26:13;;;;;;;3.58;1.38;;;9.70;94.60;;;;;;5021879;28;20615;-68
2023/01/12 01:28:39;;;;;;;3.78;1.90;;;9.70;94.60;;;;;;5030318;28;20037;-67
2023/01/12 01:31:08;;;;;;;6.70;2.10;;;9.70;94.60;;;;;;5021021;28;20029;-67
2023/01/12 01:33:33;;;;;;;10.35;2.03;;;9.70;94.70;;;;;;5030040;28;20029;-67
2023/01/12 01:36:00;;;;;;;4.85;1.83;;;9.70;94.70;;;;;;5027979;28;20029;-67
2023/01/12 01:38:26;;;;;;;2.47;1.60;;;9.70;94.80;;;;;;5024701;28;20043;-67
2023/01/12 01:40:52;;;;;;;3.75;1.60;;;9.70;94.90;;;;;;5028017;28;20505;-67
2023/01/12 01:43:20;;;;;;;5.93;1.65;;;9.80;94.90;;;;;;5020364;28;20033;-67
2023/01/12 01:45:58;;;;;;;6.43;1.70;;;9.80;94.90;;;;;;5029729;28;20033;-67
2023/01/12 01:48:26;;;;;;;5.32;1.92;;;9.80;94.90;;;;;;5010691;28;20026;-68
2023/01/12 01:51:00;;;;;;;10.70;2.17;;;9.80;95.00;;;;;;5018125;28;20030;-67
2023/01/12 01:53:30;;;;;;;5.43;1.70;;;9.80;95.00;;;;;;5020597;28;20029;-67
2023/01/12 01:56:02;;;;;;;7.05;2.10;;;9.80;95.00;;;;;;5026445;28;20022;-66
2023/01/12 01:58:41;;;;;;;5.60;1.98;;;9.80;95.00;;;;;;5019407;28;20026;-66
2023/01/12 02:01:08;;;;;;;4.63;1.50;;;9.80;95.00;;;;;;5023455;28;20562;-66
2023/01/12 02:03:35;;;;;;;4.65;1.70;;;9.80;95.00;;;;;;5028903;28;20025;-65
2023/01/12 02:06:00;;;;;;;3.97;1.70;;;9.90;95.10;;;;;;5027512;28;20033;-66
2023/01/12 02:08:47;;;;;;;5.72;1.75;;;9.90;95.10;;;;;;5023597;28;20442;-68
2023/01/12 02:16:57;;;;;;;4.22;1.73;;;9.90;95.20;;;;;;5027758;28;20060;-67
2023/01/12 02:19:38;;;;;;;6.75;1.65;;;9.80;95.30;;;;;;5028690;28;20403;-68
2023/01/12 02:22:49;;;;;;;6.00;1.70;;;9.80;95.40;;;;;;5024158;28;20401;-68
2023/01/12 02:25:42;;;;;;;4.85;1.70;;;9.80;95.60;;;;;;5024916;28;20057;-66
2023/01/12 02:28:48;;;;;;;5.15;1.70;;;9.80;95.70;;;;;;5016561;28;20464;-66
2023/01/12 02:31:28;;;;;;;5.15;1.38;;;9.80;95.70;;;;;;5018479;28;20132;-67
2023/01/12 02:34:25;;;;;;;3.28;1.33;;;9.80;95.80;;;;;;5015425;28;20032;-67
2023/01/12 02:37:25;;;;;;;5.40;1.50;;;9.80;95.80;;;;;;5020802;28;20057;-67
2023/01/12 02:40:05;;;;;;;5.50;1.50;;;9.70;95.90;;;;;;5022412;28;20045;-67
2023/01/12 02:42:48;;;;;;;1.45;1.23;;;9.80;95.90;;;;;;5012083;28;20042;-66
2023/01/12 02:45:41;;;;;;;4.65;1.17;;;9.80;95.90;;;;;;5025683;28;20033;-66
2023/01/12 02:48:24;;;;;;;5.75;1.50;;;9.80;95.90;;;;;;5028121;28;20495;-67
2023/01/12 02:51:02;;;;;;;4.75;1.60;;;9.80;95.90;;;;;;5029022;28;20037;-67
2023/01/12 02:53:42;;;;;;;6.32;1.55;;;9.80;95.80;;;;;;5022868;28;20032;-67
2023/01/12 02:56:12;;;;;;;3.20;1.27;;;9.70;95.90;;;;;;5014732;28;20369;-68
2023/01/12 02:58:43;;;;;;;7.53;1.50;;;9.80;96.00;;;;;;5029182;28;20478;-67
2023/01/12 03:01:10;;;;;;;4.60;1.30;;;9.80;96.00;;;;;;5028498;28;20430;-67
2023/01/12 03:03:38;;;;;;;3.30;1.30;;;9.70;96.00;;;;;;5011961;28;20780;-67
2023/01/12 03:06:05;;;;;;;4.50;2.00;;;9.80;96.00;;;;;;5028166;28;20099;-67
2023/01/12 03:08:32;;;;;;;6.15;1.20;;;9.80;96.00;;;;;;5022093;28;20447;-68
2023/01/12 03:11:15;;;;;;;0.93;0.90;;;9.80;96.00;;;;;;5018018;28;20498;-68
2023/01/12 03:13:49;;;;;;;6.25;1.25;;;9.80;96.00;;;;;;5027845;28;20037;-67
2023/01/12 03:16:19;;;;;;;3.50;1.25;;;9.90;95.90;;;;;;5024937;28;20436;-67
2023/01/12 03:19:08;;;;;;;4.18;1.42;;;9.90;95.90;;;;;;5016159;28;20018;-67
2023/01/12 03:21:54;;;;;;;3.15;1.00;;;9.80;95.90;;;;;;5017570;28;20049;-68
2023/01/12 03:24:31;;;;;;;3.45;1.50;;;9.80;95.90;;;;;;5018373;28;20147;-69
2023/01/12 03:27:08;;;;;;;2.78;1.10;;;9.90;96.00;;;;;;5024219;28;20376;-68
2023/01/12 03:29:38;;;;;;;3.30;1.23;;;9.90;95.90;;;;;;5015678;28;20028;-68
2023/01/12 03:32:05;;;;;;;7.05;1.98;;;9.80;95.90;;;;;;5014758;28;20492;-67
2023/01/12 03:34:32;;;;;;;4.35;1.48;;;9.80;95.90;;;;;;5031949;28;20018;-66
2023/01/12 03:37:06;;;;;;;7.03;2.03;;;9.90;95.90;;;;;;5032292;28;20025;-68
2023/01/12 03:39:54;;;;;;;9.52;1.80;;;9.90;95.90;;;;;;5013475;28;20026;-67
2023/01/12 03:42:28;;;;;;;8.02;2.03;;;9.80;95.90;;;;;;5027941;28;20434;-68
2023/01/12 03:45:27;;;;;;;7.53;1.77;;;9.80;96.00;;;;;;5024403;28;20029;-69
2023/01/12 03:48:06;;;;;;;6.80;1.60;;;9.80;96.00;;;;;;5030968;28;20026;-68
2023/01/12 03:50:50;;;;;;;3.97;1.95;;;9.80;96.00;;;;;;5012512;28;20129;-68
2023/01/12 03:53:20;;;;;;;6.20;1.90;;;9.80;96.00;;;;;;5017150;28;20033;-67
2023/01/12 03:55:49;;;;;;;6.22;1.45;;;9.80;96.00;;;;;;5015451;28;20036;-66
2023/01/12 03:58:16;;;;;;;5.55;1.52;;;9.80;96.10;;;;;;5022886;28;20069;-66
2023/01/12 04:00:41;;;;;;;3.65;1.40;;;9.80;96.10;;;;;;5012659;28;20026;-67
2023/01/12 04:03:12;;;;;;;4.95;1.38;;;9.80;96.10;;;;;;5018531;28;20108;-66
2023/01/12 04:05:40;;;;;;;6.55;1.30;;;9.70;96.10;;;;;;5025941;28;20037;-68
2023/01/12 04:08:07;;;;;;;5.35;1.35;;;9.70;96.20;;;;;;5024145;28;20531;-68
2023/01/12 04:10:32;;;;;;;8.10;1.30;;;9.70;96.20;;;;;;5012212;28;20026;-68
2023/01/12 04:12:58;;;;;;;4.95;1.13;;;9.70;96.30;;;;;;5019057;28;20117;-67
2023/01/12 04:15:24;;;;;;;4.88;1.45;;;9.70;96.60;;;;;;5027060;28;20033;-68
2023/01/12 04:17:49;;;;;;;3.80;1.10;;;9.70;96.30;;;;;;5026986;28;20033;-69
2023/01/12 04:20:15;;;;;;;4.50;1.35;;;9.70;96.40;;;;;;5030918;28;20554;-68
2023/01/12 04:22:42;;;;;;;2.50;1.75;;;9.70;96.40;;;;;;5029825;28;20029;-68
2023/01/12 04:25:10;;;;;;;4.60;1.17;;;9.70;96.40;;;;;;5022198;28;20025;-67
2023/01/12 04:27:35;;;;;;;3.55;1.20;;;9.70;96.40;;;;;;5020595;28;20026;-68
2023/01/12 04:30:01;;;;;;;6.65;1.30;;;9.70;96.40;;;;;;5028110;28;20030;-68
2023/01/12 04:32:27;;;;;;;3.30;1.45;;;9.70;96.40;;;;;;5018047;28;20029;-68
2023/01/12 04:34:52;;;;;;;2.45;1.15;;;9.70;96.50;;;;;;5029823;28;20045;-67
2023/01/12 04:37:18;;;;;;;2.90;1.27;;;9.70;96.50;;;;;;5031095;28;20373;-68
2023/01/12 04:39:43;;;;;;;3.03;1.00;;;9.70;96.50;;;;;;5012898;28;20037;-68
2023/01/12 04:42:59;;;;;;;3.90;1.10;;;9.70;96.50;;;;;;5015106;28;20091;-67
2023/01/12 04:44:54;;;;;;;3.03;1.40;;;9.70;96.50;;;;;;5022055;28;20133;-67
2023/01/12 04:47:20;;;;;;;4.50;1.17;;;9.70;96.40;;;;;;5021335;28;20092;-67
2023/01/12 04:49:45;;;;;;;5.10;1.55;;;9.70;96.40;;;;;;5027468;28;20048;-67
2023/01/12 04:52:11;;;;;;;4.78;1.25;;;9.60;96.50;;;;;;5013670;28;20041;-67
2023/01/12 04:54:36;;;;;;;3.55;1.30;;;9.60;96.50;;;;;;5030302;28;20021;-68
2023/01/12 04:57:02;;;;;;;3.03;1.40;;;9.60;96.60;;;;;;5030843;28;20025;-69
2023/01/12 04:59:28;;;;;;;2.95;1.58;;;9.60;96.60;;;;;;5020637;28;20022;-68
2023/01/12 05:01:53;;;;;;;10.02;1.33;;;9.60;96.60;;;;;;5026028;28;20424;-67
2023/01/12 05:04:19;;;;;;;6.13;1.90;;;9.60;96.70;;;;;;5027163;28;20112;-67
2023/01/12 05:06:45;;;;;;;4.22;1.20;;;9.60;96.70;;;;;;5014829;28;20098;-67
2023/01/12 05:11:54;;;;;;;3.70;1.33;;;9.60;96.80;;;;;;5011081;28;20040;-68
2023/01/12 05:14:20;;;;;;;2.00;1.10;;;9.60;96.80;;;;;;5023977;28;20480;-68
2023/01/12 05:16:45;;;;;;;2.55;1.63;;;9.70;96.80;;;;;;5018652;28;20563;-68
2023/01/12 05:19:11;;;;;;;4.63;1.25;;;9.60;96.80;;;;;;5018819;28;20026;-67
2023/01/12 05:21:37;;;;;;;5.60;1.10;;;9.70;96.80;;;;;;5028467;28;20059;-67
2023/01/12 05:24:02;;;;;;;3.13;1.10;;;9.70;96.80;;;;;;5039012;28;20188;-68
2023/01/12 05:26:28;;;;;;;2.92;0.75;;;9.70;96.80;;;;;;5010886;28;20029;-68
2023/01/12 05:28:53;;;;;;;2.65;1.17;;;9.70;96.70;;;;;;5025155;28;20029;-68
2023/01/12 05:31:19;;;;;;;2.17;1.10;;;9.80;96.70;;;;;;5028904;28;20072;-67
2023/01/12 05:33:45;;;;;;;1.63;0.88;;;9.80;96.70;;;;;;5025326;28;20029;-67
2023/01/12 05:36:13;;;;;;;2.83;0.90;;;9.80;96.70;;;;;;5025389;28;20111;-68
2023/01/12 05:38:39;;;;;;;2.72;0.90;;;9.80;96.70;;;;;;5027083;28;20026;-67
2023/01/12 05:41:06;;;;;;;3.03;0.93;;;9.80;96.70;;;;;;5011676;28;20088;-68
2023/01/12 05:43:50;;;;;;;2.53;0.73;;;9.80;96.70;;;;;;5021829;28;20036;-68
2023/01/12 05:46:20;;;;;;;2.38;1.02;;;9.80;96.70;;;;;;5012595;28;20052;-68
2023/01/12 05:48:46;;;;;;;3.22;1.00;;;9.80;96.70;;;;;;5022453;28;20057;-66
2023/01/12 05:51:12;;;;;;;1.98;1.08;;;9.90;96.70;;;;;;5022970;28;20067;-68
2023/01/12 05:53:38;;;;;;;3.42;0.95;;;9.90;96.70;;;;;;5028399;28;20451;-67
2023/01/12 05:56:21;;;;;;;3.75;1.48;;;9.90;96.70;;;;;;5026581;28;20014;-67
2023/01/12 05:58:49;;;;;;;2.10;0.90;;;9.90;96.70;;;;;;5022741;28;20365;-67
2023/01/12 06:01:14;;;;;;;1.15;0.90;;;9.90;96.70;;;;;;5028120;28;20025;-67
2023/01/12 06:03:40;;;;;;;1.50;0.65;;;9.90;96.70;;;;;;5029885;28;20369;-66
2023/01/12 06:06:05;;;;;;;3.95;1.25;;;9.90;96.70;;;;;;5028053;28;20095;-66
2023/01/12 06:08:31;;;;;;;3.17;1.02;;;9.90;96.70;;;;;;5027311;28;20026;-68
2023/01/12 06:11:01;;;;;;;3.60;1.00;;;9.90;96.70;;;;;;5029357;28;20041;-66
2023/01/12 06:14:09;;;;;;;1.20;0.88;;;9.90;96.70;;;;;;5028665;28;20026;-66
2023/01/12 06:16:15;;;;;;;1.48;1.13;;;9.90;96.70;;;;;;5026376;28;20056;-66
2023/01/12 06:18:41;;;;;;;3.60;1.00;;;10.00;96.70;;;;;;5028705;28;20528;-66
2023/01/12 06:21:09;;;;;;;3.08;0.90;;;9.90;96.70;;;;;;5029596;28;20041;-66
2023/01/12 06:23:34;;;;;;;5.75;1.02;;;10.00;96.70;;;;;;5030441;28;20050;-66
2023/01/12 06:26:01;;;;;;;4.30;1.00;;;10.00;96.70;;;;;;5029977;28;20526;-67
2023/01/12 06:28:27;;;;;;;4.45;1.10;;;10.00;96.70;;;;;;5029994;28;20040;-66
2023/01/12 06:31:01;;;;;;;1.92;0.70;;;10.00;96.60;;;;;;5029780;28;20064;-66
2023/01/12 06:33:27;;;;;;;1.63;1.20;;;10.00;96.70;;;;;;5010236;28;20088;-67
2023/01/12 06:35:54;;;;;;;4.90;1.20;;;10.00;96.70;;;;;;5025280;28;20037;-67
2023/01/12 06:38:22;;;;;;;2.22;1.02;;;10.00;96.70;;;;;;5010243;28;20033;-66
2023/01/12 06:40:48;;;;;;;1.92;0.90;;;10.00;96.80;;;;;;5024364;28;20033;-67
2023/01/12 06:43:14;;;;;;;1.30;0.80;;;10.00;96.80;;;;;;5031034;28;20035;-66
2023/01/12 06:45:40;;;;;;;1.42;0.90;;;10.00;96.80;;;;;;5033343;28;20076;-67
2023/01/12 06:48:06;;;;;;;1.20;1.10;;;10.00;96.80;;;;;;5032162;28;20033;-67
2023/01/12 06:50:32;;;;;;;0.75;0.70;;;10.00;96.80;;;;;;5033052;28;20037;-67
2023/01/12 06:52:59;;;;;;;1.58;0.80;;;10.00;96.80;;;;;;5033321;28;20036;-68
2023/01/12 06:55:24;;;;;;;0.98;0.77;;;10.10;96.80;;;;;;5033182;28;20021;-68
2023/01/12 06:57:50;;;;;;;3.47;0.93;;;10.10;96.80;;;;;;5033161;28;20507;-67
2023/01/12 07:00:16;;;;;;;1.17;0.90;;;10.00;96.80;;;;;;5033255;28;20029;-67
2023/01/12 07:02:41;;;;;;;2.17;1.25;;;10.10;96.90;;;;;;5032821;28;20033;-67
2023/01/12 07:05:07;;;;;;;3.13;0.98;;;10.10;97.00;;;;;;5032920;28;20021;-68
2023/01/12 07:07:33;;;;;;;4.82;1.00;;;10.10;97.00;;;;;;5033172;28;20057;-67
2023/01/12 07:09:59;;;;;;;1.80;0.90;;;10.10;97.10;;;;;;5033011;28;20037;-68
2023/01/12 07:12:24;;;;;;;2.80;0.98;;;10.10;97.00;;;;;;5031841;28;20029;-67
2023/01/12 07:14:50;;;;;;;1.45;1.00;;;10.20;97.10;;;;;;5032619;28;20021;-68
2023/01/12 07:17:15;;;;;;;1.05;0.93;;;10.20;97.10;;;;;;5033010;28;20697;-68
2023/01/12 07:19:42;;;;;;;1.80;0.80;;;10.20;97.00;;;;;;5032789;28;20084;-68
2023/01/12 07:22:07;;;;;;;2.25;1.10;;;10.20;97.30;;;;;;5031277;28;20332;-68
2023/01/12 07:24:33;;;;;;;0.90;0.90;;;10.20;97.00;;;;;;5032877;28;20026;-67
2023/01/12 07:27:00;;;;;;;0.95;0.95;;;10.20;97.00;;;;;;5032533;28;20025;-68
2023/01/12 07:29:25;;;;;;;4.53;1.48;;;10.20;97.00;;;;;;5024814;28;21373;-68
2023/01/12 07:31:51;;;;;;;1.98;0.90;;;10.20;97.10;;;;;;5031015;28;20049;-68
2023/01/12 07:34:17;;;;;;;1.60;0.82;;;10.30;97.10;;;;;;5032280;28;20033;-67
2023/01/12 07:36:42;;;;;;;1.58;1.48;;;10.30;97.10;;;;;;5032342;28;20028;-66
2023/01/12 07:39:10;;;;;;;1.65;1.05;;;10.30;97.10;;;;;;5031736;28;20488;-67
2023/01/12 07:44:20;;;;;;;1.15;0.88;;;10.30;97.20;;;;;;5032200;28;20135;-67
2023/01/12 07:46:45;;;;;;;1.25;1.00;;;10.30;97.20;;;;;;5032311;28;20597;-67
2023/01/12 07:49:11;;;;;;;1.85;1.08;;;10.30;97.20;;;;;;5028924;28;20072;-66
2023/01/12 07:51:36;;;;;;;1.23;1.00;;;10.40;97.30;;;;;;5030872;28;20495;-67
2023/01/12 07:54:02;;;;;;;1.63;1.20;;;10.30;97.40;;;;;;5029215;28;20369;-67
2023/01/12 07:56:28;;;;;;;2.50;1.05;;;10.30;97.50;;;;;;5029733;28;20501;-66
2023/01/12 07:58:53;;;;;;;1.90;1.20;;;10.40;97.50;;;;;;5031994;28;20447;-67
2023/01/12 08:01:19;;;;;;;1.35;1.10;;;10.40;97.50;;;;;;5030004;28;20373;-67
2023/01/12 08:03:44;;;;;;;7.10;1.20;;;10.40;97.50;;;;;;5025960;28;20026;-67
2023/01/12 08:06:10;;;;;;;1.70;1.23;;;10.40;97.60;;;;;;5025803;28;20036;-66
2023/01/12 08:08:35;;;;;;;1.10;0.95;;;10.50;97.60;;;;;;5029325;28;20057;-67
2023/01/12 08:11:03;;;;;;;3.17;1.20;;;10.40;97.50;;;;;;5025909;28;20038;-67
2023/01/12 08:13:29;;;;;;;2.83;1.00;;;10.50;97.50;;;;;;5029844;28;20025;-67
2023/01/12 08:16:01;;;;;;;1.75;1.15;;;10.50;97.50;;;;;;5030125;28;20033;-65
2023/01/12 08:18:32;;;;;;;2.17;1.10;;;10.50;97.50;;;;;;5030745;28;20507;-68
2023/01/12 08:20:59;;;;;;;1.45;1.13;;;10.50;97.50;;;;;;5030092;28;20030;-66
2023/01/12 08:23:31;;;;;;;2.08;1.10;;;10.50;97.60;;;;;;5030481;28;20648;-67
2023/01/12 08:26:01;;;;;;;1.17;1.05;;;10.50;97.60;;;;;;5030486;28;20049;-66
2023/01/12 08:28:32;;;;;;;0.90;0.90;;;10.50;97.70;;;;;;5029173;28;20029;-67
2023/01/12 08:30:58;;;;;;;1.92;1.20;;;10.50;97.70;;;;;;5025307;28;20052;-67
2023/01/12 08:33:25;;;;;;;2.45;1.20;;;10.50;97.60;;;;;;5024686;28;20022;-67
2023/01/12 08:35:50;;;;;;;2.17;1.50;;;10.60;97.70;;;;;;5023935;28;20436;-67
2023/01/12 08:38:18;;;;;;;2.25;1.33;;;10.60;97.70;;;;;;5031327;28;20026;-66
2023/01/12 08:46:12;;;;;;;2.75;1.25;;;10.60;97.80;;;;;;5028618;28;20040;-66
2023/01/12 08:48:38;;;;;;;1.85;1.30;;;10.70;97.90;;;;;;5030992;28;20022;-66
2023/01/12 08:51:05;;;;;;;2.00;1.20;;;10.70;97.90;;;;;;5046430;28;20064;-66
2023/01/12 08:53:31;;;;;;;1.92;1.48;;;10.70;97.80;;;;;;5023357;28;20022;-67
2023/01/12 08:55:56;;;;;;;2.88;1.73;;;10.70;97.80;;;;;;5028861;28;20048;-66
2023/01/12 08:58:22;;;;;;;1.90;1.40;;;10.70;97.80;;;;;;5033777;28;20025;-66
2023/01/12 09:00:48;;;;;;;1.17;1.08;;;10.80;97.70;;;;;;5035343;28;20040;-66
2023/01/12 09:03:13;;;;;;;1.85;1.30;;;10.80;97.70;;;;;;5034082;28;20029;-68
2023/01/12 09:05:39;;;;;;;1.67;1.30;;;10.80;97.80;;;;;;5028496;28;20029;-67
2023/01/12 09:08:05;;;;;;;1.52;1.40;;;10.80;97.80;;;;;;5024670;28;20036;-67
2023/01/12 09:10:30;;;;;;;1.33;1.00;;;10.80;97.70;;;;;;5037568;28;20029;-67
2023/01/12 09:12:56;;;;;;;3.10;1.70;;;10.80;97.70;;;;;;5045439;28;20021;-67
2023/01/12 09:15:21;;;;;;;1.40;1.30;;;10.80;97.70;;;;;;5044817;28;20025;-66
2023/01/12 09:17:54;;;;;;;1.20;1.10;;;10.80;97.70;;;;;;5032385;28;20032;-67
2023/01/12 09:20:20;;;;;;;1.38;1.27;;;10.90;97.70;;;;;;5029580;28;20033;-68
2023/01/12 09:22:46;;;;;;;1.25;1.15;;;10.90;97.60;;;;;;5030571;28;20478;-68
2023/01/12 09:25:12;;;;;;;1.30;1.05;;;10.90;97.60;;;;;;5030288;28;20065;-66
2023/01/12 09:27:37;;;;;;;1.35;1.25;;;10.90;97.50;;;;;;5044612;28;20108;-67
2023/01/12 09:30:05;;;;;;;2.70;1.33;;;10.90;97.50;;;;;;5034075;28;20029;-66
2023/01/12 09:32:31;;;;;;;1.92;1.45;;;10.90;97.60;;;;;;5030502;28;20753;-68
2023/01/12 09:34:58;;;;;;;1.35;1.25;;;10.90;97.60;;;;;;5027763;28;20029;-67
2023/01/12 09:37:24;;;;;;;1.52;1.35;;;10.90;97.70;;;;;;5037797;28;20456;-67
2023/01/12 09:39:50;;;;;;;2.63;1.48;;;11.00;97.70;;;;;;5027766;28;20033;-67
2023/01/12 09:48:05;;;;;;;1.48;1.30;;;11.00;97.70;;;;;;5038670;28;20606;-68
2023/01/12 09:50:35;;;;;;;2.35;1.35;;;11.00;97.70;;;;;;5026393;28;20167;-68
2023/01/12 09:53:06;;;;;;;1.42;1.20;;;11.00;97.70;;;;;;5022620;28;20075;-67
2023/01/12 09:55:46;;;;;;;2.00;1.50;;;11.10;97.70;;;;;;5028080;28;20029;-68
2023/01/12 09:58:23;;;;;;;1.30;1.20;;;11.10;97.70;;;;;;5024857;28;20658;-67
2023/01/12 10:00:55;;;;;;;1.63;1.20;;;11.10;97.70;;;;;;5021845;28;20037;-65
2023/01/12 10:03:37;;;;;;;2.08;1.40;;;11.20;97.70;;;;;;5025795;28;20151;-65
2023/01/12 10:06:04;;;;;;;3.55;1.20;;;11.20;97.90;;;;;;5028739;28;20075;-68
2023/01/12 10:08:37;;;;;;;1.52;1.30;;;11.20;97.70;;;;;;5029207;28;20454;-66
2023/01/12 10:11:06;;;;;;;1.00;1.00;;;11.20;97.80;;;;;;5027611;28;20060;-67
2023/01/12 10:14:22;;;;;;;0.93;0.90;;;11.20;97.80;;;;;;5030514;28;20365;-66
2023/01/12 10:17:24;;;;;;;1.05;1.00;;;11.30;97.80;;;;;;5017154;28;20523;-66
2023/01/12 10:20:08;;;;;;;1.30;1.20;;;11.30;97.80;;;;;;5033022;28;20481;-67
2023/01/12 10:22:39;;;;;;;2.35;1.20;;;11.30;97.70;;;;;;5033081;28;20057;-67
2023/01/12 10:25:17;;;;;;;1.73;1.10;;;11.30;97.70;;;;;;5033834;28;20029;-66
2023/01/12 10:27:45;;;;;;;1.00;0.90;;;11.30;97.70;;;;;;5032392;28;20087;-67
2023/01/12 10:30:32;;;;;;;0.95;0.90;;;11.30;97.70;;;;;;5031682;28;20053;-67
2023/01/12 10:33:15;;;;;;;1.30;1.15;;;11.30;97.80;;;;;;5033761;28;20048;-68
2023/01/12 10:35:55;;;;;;;1.15;1.00;;;11.30;97.80;;;;;;5033682;28;20108;-66
2023/01/12 10:38:28;;;;;;;1.27;1.08;;;11.30;97.90;;;;;;5033058;28;20033;-66
2023/01/12 10:41:09;;;;;;;0.80;0.80;;;11.40;98.00;;;;;;5031268;28;20618;-67
2023/01/12 10:43:36;;;;;;;1.88;1.10;;;11.30;98.00;;;;;;5025535;28;20392;-67
2023/01/12 10:46:15;;;;;;;1.75;0.98;;;11.40;97.90;;;;;;5032792;28;20029;-67
2023/01/12 10:48:52;;;;;;;1.10;1.00;;;11.40;97.90;;;;;;5032170;28;20510;-66
2023/01/12 10:51:29;;;;;;;2.20;1.00;;;11.40;98.00;;;;;;5031172;28;20720;-66
2023/01/12 10:54:02;;;;;;;1.63;1.00;;;11.40;98.00;;;;;;5032184;28;20076;-67
2023/01/12 10:56:50;;;;;;;1.10;1.00;;;11.40;98.00;;;;;;5031289;28;20438;-66
2023/01/12 10:59:20;;;;;;;0.85;0.85;;;11.40;98.00;;;;;;5031731;28;20068;-65
2023/01/12 11:02:04;;;;;;;0.88;0.82;;;11.40;98.10;;;;;;5032371;28;20067;-65
2023/01/12 11:04:35;;;;;;;1.77;0.80;;;11.40;98.10;;;;;;5023082;28;20034;-65
2023/01/12 11:07:25;;;;;;;0.85;0.85;;;11.50;98.10;;;;;;5033075;28;20033;-66
2023/01/12 11:09:52;;;;;;;1.20;0.80;;;11.40;98.10;;;;;;5031704;28;20064;-66
2023/01/12 11:12:36;;;;;;;0.80;0.73;;;11.50;98.00;;;;;;5032207;28;20381;-65
2023/01/12 11:15:03;;;;;;;1.23;1.00;;;11.50;98.00;;;;;;5029307;28;20099;-67
2023/01/12 11:17:42;;;;;;;1.17;1.00;;;11.50;98.00;;;;;;5032128;28;20025;-67
2023/01/12 11:20:17;;;;;;;0.70;0.70;;;11.50;98.10;;;;;;5028468;28;20037;-66
2023/01/12 11:22:45;;;;;;;0.60;0.60;;;11.50;98.10;;;;;;5026880;28;20051;-66
2023/01/12 11:25:34;;;;;;;1.08;0.90;;;11.60;98.10;;;;;;5031527;28;20021;-66
2023/01/12 11:28:21;;;;;;;0.80;0.80;;;11.60;98.10;;;;;;5026381;28;20033;-68
2023/01/12 11:30:55;;;;;;;0.80;0.80;;;11.60;98.30;;;;;;5027203;28;20029;-67
2023/01/12 11:33:29;;;;;;;0.90;0.90;;;11.60;98.10;;;;;;5031445;28;20034;-67
2023/01/12 11:36:12;;;;;;;1.02;0.90;;;11.60;98.20;;;;;;5031129;28;20022;-67
2023/01/12 11:38:49;;;;;;;0.77;0.77;;;11.60;98.20;;;;;;5030283;28;20514;-67
2023/01/12 11:41:40;;;;;;;1.10;0.90;;;11.70;98.20;;;;;;5031178;28;20036;-66
2023/01/12 11:44:29;;;;;;;2.25;1.00;;;11.70;98.10;;;;;;5029480;28;20029;-67
2023/01/12 11:47:09;;;;;;;1.00;0.90;;;11.70;98.20;;;;;;5028921;28;20396;-66
2023/01/12 11:49:52;;;;;;;0.93;0.93;;;11.70;98.10;;;;;;5031009;28;20059;-66
2023/01/12 11:52:18;;;;;;;1.25;1.15;;;11.70;98.40;;;;;;5030412;28;20029;-68
2023/01/12 11:54:43;;;;;;;1.67;1.25;;;11.70;98.40;;;;;;5031208;28;20656;-69
2023/01/12 11:57:46;;;;;;;1.48;1.27;;;11.70;98.10;;;;;;5026736;28;20026;-66
2023/01/12 12:00:41;;;;;;;1.10;1.00;;;11.70;98.20;;;;;;5031655;28;20035;-66
2023/01/12 12:03:41;;;;;;;1.48;1.05;;;11.70;98.10;;;;;;5024110;28;20034;-67
2023/01/12 12:06:34;;;;;;;1.10;1.00;;;11.70;98.20;;;;;;5031100;28;20512;-66
2023/01/12 12:09:18;;;;;;;2.22;1.00;;;11.70;98.20;;;;;;5028746;28;20095;-67
2023/01/12 12:11:59;;;;;;;2.78;1.17;;;11.80;98.10;;;;;;5021678;28;20049;-68
2023/01/12 12:14:44;;;;;;;1.00;0.90;;;11.80;98.10;;;;;;5031361;28;20032;-68
2023/01/12 12:17:35;;;;;;;1.00;0.90;;;11.80;98.10;;;;;;5029961;28;20033;-67
2023/01/12 12:20:33;;;;;;;1.07;0.80;;;11.80;98.10;;;;;;5031109;28;20108;-67
2023/01/12 12:23:06;;;;;;;1.10;1.00;;;11.80;98.40;;;;;;5028377;28;20280;-67
2023/01/12 12:25:44;;;;;;;1.05;0.98;;;11.70;98.10;;;;;;5024427;28;20025;-67
2023/01/12 12:28:34;;;;;;;1.10;1.00;;;11.80;98.20;;;;;;5028242;28;20539;-67
2023/01/12 12:31:06;;;;;;;2.38;1.10;;;11.80;98.10;;;;;;5031272;28;21817;-66
2023/01/12 12:33:59;;;;;;;1.27;1.00;;;11.80;98.10;;;;;;5030868;28;20017;-67
2023/01/12 12:36:34;;;;;;;1.10;1.00;;;11.80;98.10;;;;;;5030529;28;20026;-66
2023/01/12 12:39:08;;;;;;;1.00;0.90;;;11.80;98.00;;;;;;5028678;28;20610;-67
2023/01/12 12:45:32;;;;;;;0.93;0.88;;;11.80;98.20;;;;;;5028179;28;20032;-67
2023/01/12 12:48:13;;;;;;;1.50;0.98;;;11.80;98.20;;;;;;5016912;28;20025;-67
2023/01/12 12:50:45;;;;;;;1.33;0.93;;;11.80;98.30;;;;;;5027145;28;20026;-66
2023/01/12 12:53:11;;;;;;;1.00;0.90;;;11.80;98.30;;;;;;5031193;28;20017;-66
2023/01/12 12:55:37;;;;;;;1.10;1.00;;;11.80;98.30;;;;;;5030672;28;20033;-67
2023/01/12 12:58:04;;;;;;;1.05;0.95;;;11.80;98.30;;;;;;5031150;28;20021;-67
2023/01/12 13:00:42;;;;;;;1.08;0.98;;;11.80;98.30;;;;;;5029608;28;20026;-68
2023/01/12 13:03:08;;;;;;;1.25;1.00;;;11.80;98.30;;;;;;5011367;28;20052;-66
2023/01/12 13:06:09;;;;;;;0.93;0.70;;;11.80;98.30;;;;;;5011321;28;20496;-67
2023/01/12 13:08:35;;;;;;;0.82;0.82;;;11.80;98.30;;;;;;5011316;28;20381;-66
2023/01/12 13:11:01;;;;;;;1.33;1.23;;;11.80;98.30;;;;;;5026655;28;20037;-66
2023/01/12 13:13:35;;;;;;;1.00;0.80;;;11.80;98.30;;;;;;5030690;28;20402;-66
2023/01/12 13:16:28;;;;;;;0.88;0.80;;;11.80;98.30;;;;;;5027740;28;20498;-66
2023/01/12 13:18:53;;;;;;;0.80;0.80;;;11.80;98.30;;;;;;5018054;28;20041;-67
2023/01/12 13:21:56;;;;;;;0.70;0.70;;;11.80;98.20;;;;;;5030205;28;20025;-67
2023/01/12 13:24:28;;;;;;;0.73;0.73;;;11.80;98.30;;;;;;5028994;28;20029;-67
2023/01/12 13:26:56;;;;;;;1.95;0.90;;;11.70;98.20;;;;;;5029963;28;20052;-67
2023/01/12 13:29:22;;;;;;;0.98;0.77;;;11.70;98.20;;;;;;5032805;28;20101;-68
2023/01/12 13:31:52;;;;;;;0.80;0.80;;;11.70;98.20;;;;;;5043287;28;20139;-67
2023/01/12 13:34:36;;;;;;;0.73;0.70;;;11.70;98.20;;;;;;5030587;28;20464;-66
2023/01/12 13:37:18;;;;;;;1.23;1.00;;;11.70;98.30;;;;;;5028586;28;20040;-66
2023/01/12 13:39:58;;;;;;;1.58;1.25;;;11.70;98.30;;;;;;5030628;28;20057;-67
2023/01/12 13:45:16;;;;;;;1.58;1.15;;;11.60;98.20;;;;;;5040365;28;20063;-66
2023/01/12 13:47:43;;;;;;;2.00;1.13;;;11.70;98.30;;;;;;5028555;28;20488;-68
2023/01/12 13:50:19;;;;;;;1.20;1.10;;;11.60;98.20;;;;;;5033429;28;20052;-67